createdAt,value
2016-11-20T20:48:18.610Z,72.53
2016-11-20T20:49:19.203Z,72.72
2016-11-20T20:50:19.818Z,73.77
2016-11-20T20:51:20.486Z,73.39
2016-11-20T20:52:21.094Z,72.78
2016-11-20T20:53:21.734Z,73.49
2016-11-20T20:54:22.333Z,73.3
2016-11-20T20:55:22.972Z,73.55
2016-11-20T20:56:23.596Z,73.74
2016-11-20T20:57:24.214Z,74.02
2016-11-20T20:58:24.824Z,73.93
2016-11-20T20:59:25.510Z,73.93
2016-11-20T21:00:26.102Z,74.12
2016-11-20T21:01:26.709Z,74.21
2016-11-20T21:02:27.314Z,73.83
2016-11-20T21:03:27.911Z,73.55
2016-11-20T21:04:28.523Z,73.45
2016-11-20T21:05:29.216Z,73.65
2016-11-20T21:06:29.824Z,73.74
2016-11-20T21:07:31.247Z,73.36
2016-11-20T21:08:31.873Z,73.36
2016-11-20T21:09:32.485Z,73.36
2016-11-20T21:10:33.119Z,73.93
2016-11-20T21:11:33.799Z,73.26
2016-11-20T21:12:34.418Z,72.88
2016-11-20T21:13:35.038Z,73.36
2016-11-20T21:14:35.663Z,73.45
2016-11-20T21:15:36.378Z,73.55
2016-11-20T21:16:37.032Z,73.65
2016-11-20T21:17:37.658Z,73.93
2016-11-20T21:18:38.268Z,73.83
2016-11-20T21:19:38.886Z,74.02
2016-11-20T21:20:39.514Z,74.02
2016-11-20T21:21:40.186Z,73.93
2016-11-20T21:22:40.839Z,73.83
2016-11-20T21:23:41.553Z,74.12
2016-11-20T21:24:42.157Z,74.31
2016-11-20T21:25:42.791Z,73.83
2016-11-20T21:26:43.437Z,73.93
2016-11-20T21:27:44.134Z,74.02
2016-11-20T21:28:44.797Z,74.31
2016-11-20T21:29:45.417Z,73.83
2016-11-20T21:30:46.054Z,74.4
2016-11-20T21:31:46.664Z,74.4
2016-11-20T21:32:47.312Z,73.83
2016-11-20T21:33:48.065Z,74.6
2016-11-20T21:34:48.671Z,73.93
2016-11-20T21:35:49.336Z,74.69
2016-11-20T21:36:49.940Z,74.79
2016-11-20T21:37:50.549Z,74.69
2016-11-20T21:38:51.224Z,74.98
2016-11-20T21:39:51.828Z,75.64
2016-11-20T21:40:52.478Z,75.64
2016-11-20T21:41:53.384Z,75.45
2016-11-20T21:42:54.012Z,75.64
2016-11-20T21:43:54.627Z,74.98
2016-11-20T21:44:55.233Z,75.16
2016-11-20T21:45:55.850Z,75.64
2016-11-20T21:46:56.589Z,75.74
2016-11-20T21:47:57.289Z,75.45
2016-11-20T21:48:57.940Z,74.88
2016-11-20T21:49:58.661Z,75.07
2016-11-20T21:50:59.352Z,75.07
2016-11-20T21:51:59.997Z,75.36
2016-11-20T21:53:00.656Z,76.03
2016-11-20T21:54:01.296Z,75.26
2016-11-20T21:55:01.973Z,75.64
2016-11-20T21:56:02.671Z,75.84
2016-11-20T21:57:03.275Z,76.4
2016-11-20T21:58:03.978Z,76.31
2016-11-20T21:59:04.606Z,76.69
2016-11-20T22:00:05.263Z,76.31
2016-11-20T22:01:05.960Z,76.59
2016-11-20T22:02:06.587Z,76.21
2016-11-20T22:03:07.270Z,76.4
2016-11-20T22:04:07.917Z,76.21
2016-11-20T22:05:08.580Z,75.84
2016-11-20T22:06:09.250Z,76.03
2016-11-20T22:07:09.970Z,76.5
2016-11-20T22:08:10.557Z,76.12
2016-11-20T22:09:11.251Z,76.59
2016-11-20T22:10:11.924Z,76.5
2016-11-20T22:11:12.590Z,76.59
2016-11-20T22:12:13.311Z,77.36
2016-11-20T22:13:13.895Z,77.45
2016-11-20T22:14:14.597Z,76.79
2016-11-20T22:15:15.187Z,76.03
2016-11-20T22:16:15.939Z,76.69
2016-11-20T22:17:16.507Z,77.17
2016-11-20T22:18:17.160Z,77.17
2016-11-20T22:19:17.859Z,76.69
2016-11-20T22:20:18.475Z,76.88
2016-11-20T22:21:19.130Z,76.79
2016-11-20T22:22:19.817Z,76.59
2016-11-20T22:23:20.435Z,76.12
2016-11-20T22:24:21.078Z,76.79
2016-11-20T22:25:21.774Z,76.59
2016-11-20T22:26:22.683Z,76.59
2016-11-20T22:27:23.309Z,76.5
2016-11-20T22:28:23.980Z,76.5
2016-11-20T22:29:24.635Z,76.98
2016-11-20T22:30:25.474Z,77.07
2016-11-20T22:31:26.046Z,77.26
2016-11-20T22:32:26.715Z,77.26
2016-11-20T22:33:27.365Z,75.93
2016-11-20T22:34:28.009Z,76.21
2016-11-20T22:35:28.700Z,75.84
2016-11-20T22:36:29.368Z,75.55
2016-11-20T22:37:30.028Z,75.55
2016-11-20T22:38:30.782Z,75.84
2016-11-20T22:39:31.511Z,75.55
2016-11-20T22:40:32.195Z,75.36
2016-11-20T22:41:33.778Z,75.07
2016-11-20T22:42:34.479Z,74.79
2016-11-20T22:43:35.154Z,74.35
2016-11-20T22:44:35.779Z,74.88
2016-11-20T22:45:36.595Z,74.69
2016-11-20T22:46:37.148Z,75.07
2016-11-20T22:47:37.845Z,75.36
2016-11-20T22:48:38.534Z,75.16
2016-11-20T22:49:39.219Z,75.74
2016-11-20T22:50:40.007Z,76.03
2016-11-20T22:51:40.678Z,76.03
2016-11-20T22:52:41.299Z,75.93
2016-11-20T22:53:41.940Z,75.93
2016-11-20T22:54:42.564Z,75.45
2016-11-20T22:55:43.188Z,75.74
2016-11-20T22:56:43.824Z,75.45
2016-11-20T22:57:44.436Z,75.64
2016-11-20T22:58:45.515Z,75.84
2016-11-20T22:59:46.126Z,75.45
2016-11-20T23:00:46.759Z,75.84
2016-11-20T23:01:47.382Z,76.03
2016-11-20T23:02:48.027Z,76.59
2016-11-20T23:03:48.639Z,76.59
2016-11-20T23:04:49.248Z,76.69
2016-11-20T23:05:49.864Z,77.36
2016-11-20T23:06:50.489Z,76.31
2016-11-20T23:07:51.117Z,75.84
2016-11-20T23:08:51.738Z,76.03
2016-11-20T23:09:52.367Z,75.74
2016-11-20T23:10:53.061Z,76.03
2016-11-20T23:11:53.687Z,76.21
2016-11-20T23:12:54.318Z,76.21
2016-11-20T23:13:54.944Z,76.59
2016-11-20T23:14:55.592Z,76.31
2016-11-20T23:15:56.216Z,75.36
2016-11-20T23:16:56.832Z,75.64
2016-11-20T23:17:57.449Z,75.16
2016-11-20T23:18:58.074Z,74.69
2016-11-20T23:19:59.408Z,74.6
2016-11-20T23:21:00.056Z,74.69
2016-11-20T23:22:00.693Z,75.36
2016-11-20T23:23:01.309Z,75.26
2016-11-20T23:24:01.964Z,75.55
2016-11-20T23:25:02.575Z,74.69
2016-11-20T23:26:03.205Z,75.55
2016-11-20T23:27:03.793Z,75.84
2016-11-20T23:28:04.398Z,75.26
2016-11-20T23:29:05.104Z,75.07
2016-11-20T23:30:05.758Z,75.26
2016-11-20T23:31:06.341Z,75.07
2016-11-20T23:32:06.954Z,75.16
2016-11-20T23:33:07.580Z,74.88
2016-11-20T23:34:08.209Z,75.07
2016-11-20T23:35:08.830Z,75.07
2016-11-20T23:36:09.447Z,74.98
2016-11-20T23:37:10.066Z,75.07
2016-11-20T23:38:10.719Z,74.98
2016-11-20T23:39:11.367Z,75.64
2016-11-20T23:40:12.004Z,75.64
2016-11-20T23:41:12.723Z,74.98
2016-11-20T23:42:13.374Z,75.07
2016-11-20T23:43:14.048Z,75.07
2016-11-20T23:44:14.671Z,74.69
2016-11-20T23:45:15.342Z,75.16
2016-11-20T23:46:16.021Z,75.16
2016-11-20T23:47:16.652Z,75.36
2016-11-20T23:48:17.306Z,75.64
2016-11-20T23:49:17.943Z,75.64
2016-11-20T23:50:18.634Z,75.16
2016-11-20T23:51:19.290Z,75.36
2016-11-20T23:52:19.915Z,74.98
2016-11-20T23:53:20.584Z,75.16
2016-11-20T23:54:21.237Z,75.55
2016-11-20T23:55:21.864Z,75.64
2016-11-20T23:56:22.483Z,75.84
2016-11-20T23:57:23.098Z,76.03
2016-11-20T23:58:23.728Z,76.31
2016-11-20T23:59:24.348Z,75.45
